createdAt,value
2022-12-31T00:05:20.283Z,3.012
2022-12-31T00:21:03.090Z,3.011
2022-12-31T00:36:46.061Z,3.01
2022-12-31T00:52:28.422Z,3.01
2022-12-31T01:08:11.169Z,3.005
2022-12-31T01:23:54.397Z,3.004
2022-12-31T01:39:37.457Z,3.003
2022-12-31T01:55:19.984Z,3.001
2022-12-31T02:11:02.639Z,3
2022-12-31T02:26:45.079Z,2.999
2022-12-31T02:42:27.478Z,2.996
2022-12-31T02:58:10.082Z,2.996
2022-12-31T03:13:53.084Z,2.993
2022-12-31T03:29:35.683Z,2.994
2022-12-31T03:45:18.526Z,2.989
2022-12-31T04:01:00.889Z,2.987
2022-12-31T04:16:43.266Z,2.986
2022-12-31T04:32:25.964Z,2.983
2022-12-31T04:48:08.324Z,2.982
2022-12-31T05:03:51.389Z,2.981
2022-12-31T05:19:33.952Z,2.979
2022-12-31T05:35:16.814Z,2.978
2022-12-31T05:50:59.955Z,2.979
2022-12-31T06:06:42.447Z,2.979
2022-12-31T06:22:25.309Z,2.976
2022-12-31T06:38:07.829Z,2.972
2022-12-31T06:53:50.161Z,2.972
2022-12-31T07:09:32.846Z,2.967
2022-12-31T07:25:15.202Z,2.964
2022-12-31T07:40:57.389Z,2.961
2022-12-31T07:56:39.900Z,2.958
2022-12-31T08:12:22.493Z,2.957
2022-12-31T08:28:04.999Z,2.954
2022-12-31T08:43:47.586Z,2.953
2022-12-31T08:59:30.642Z,2.95
2022-12-31T09:15:13.284Z,2.947
2022-12-31T09:30:55.782Z,2.946
2022-12-31T09:46:38.750Z,2.931
2022-12-31T10:02:21.413Z,2.928
2022-12-31T10:18:04.230Z,2.925
2022-12-31T10:33:47.209Z,2.924
2022-12-31T10:49:30.318Z,2.92
2022-12-31T11:05:12.822Z,2.917
2022-12-31T11:20:55.043Z,2.916
2022-12-31T11:36:38.166Z,2.913
2022-12-31T11:37:25.373Z,2.906
2022-12-31T11:53:08.068Z,2.907
2022-12-31T12:08:50.379Z,2.906
2022-12-31T12:24:33.289Z,2.905
2022-12-31T12:40:15.853Z,2.902
2022-12-31T12:55:58.621Z,2.899
2022-12-31T13:11:41.088Z,2.896
2022-12-31T13:27:23.661Z,2.895
2022-12-31T13:43:06.652Z,2.892
2022-12-31T13:58:49.675Z,2.888
2022-12-31T14:14:31.903Z,2.887
2022-12-31T14:30:14.412Z,2.884
2022-12-31T14:45:56.672Z,2.881
2022-12-31T15:01:39.209Z,2.878
2022-12-31T15:17:21.995Z,2.874
2022-12-31T15:33:04.190Z,2.871
2022-12-31T15:48:46.397Z,2.87
2022-12-31T16:04:28.965Z,2.866
2022-12-31T16:20:11.233Z,2.863
2022-12-31T16:35:53.571Z,2.86
2022-12-31T16:51:35.902Z,2.858
2022-12-31T17:07:19.051Z,2.853
2022-12-31T17:23:01.289Z,2.851
2022-12-31T17:38:43.988Z,2.841
2022-12-31T17:54:26.352Z,2.838
2022-12-31T18:10:09.330Z,2.835
2022-12-31T18:25:51.698Z,2.831
2022-12-31T18:41:34.220Z,2.828
2022-12-31T18:57:17.773Z,2.826
2022-12-31T19:13:00.187Z,2.823
2022-12-31T19:28:43.119Z,2.819
2022-12-31T19:44:26.165Z,2.816
2022-12-31T20:00:08.371Z,2.812
2022-12-31T20:15:51.573Z,2.808
2022-12-31T20:31:33.929Z,2.804
2022-12-31T20:47:16.607Z,2.799
2022-12-31T21:02:59.644Z,2.795
2022-12-31T21:18:41.934Z,2.791
2022-12-31T21:34:24.662Z,2.787
2022-12-31T21:50:07.397Z,2.781
2022-12-31T22:05:50.452Z,2.777
2022-12-31T22:21:33.354Z,2.773
2022-12-31T22:37:16.200Z,2.768
2022-12-31T22:52:58.648Z,2.762
2022-12-31T23:08:40.863Z,2.757
2022-12-31T23:24:23.216Z,2.74
2022-12-31T23:40:05.819Z,2.734
2022-12-31T23:55:48.194Z,2.729
